Indian Wells, Arizona
Current Conditions -  °F | °C
As of 7:02 AM on Sunday 21 Dec 2014 (Local Time) from KINW Reporting Station
Haze Haze  
Wind Chill: 21°   Ceiling: 100
Heat Index: 28°   Visibility: 0.75mi
Dew Point: 26°   Wind: 7mph
Humidity: 92%   Direction: 90°E
Pressure: 30.08"   Gusts: NA
Location:  35.41°N, 110.09°W
Report Text: KINW 211402Z AUTO 09006KT 3/4SM BR BKN001 M02/M03 A3008 RMK AO2 T10221033
Loading
Personal Weather Stations






























Interactive Weather Map New forecast layout! Learn more

10-Day Weather Forecast

Advertisements
Track Severe Weather on mobile